Portada
METAR-TAF:

METAR-TAF

Aeroports :

Bordeus, França

latitud: 44-50N, longitud: 000-42W, altitud: 49 m

Observació

L'informe es va fer fa 14 hores i 51 minuts, a les 05:00 UTC
Vent 2 kt amb direcció variable
Temperatura 19°C
Humitat 94%
Pressió 1019 hPa
Visibilitat: 0600 m
boira en bancs

METAR: LFBD 210500Z AUTO VRB02KT 9999 0600 R23/P2300 R05/0750D R29/P2300 BCFG NSC 19/18 Q1019 TEMPO 0900 BCFG

Hora: 21:51 (19:51 UTC)

Pronòstic

L'informe es va fer fa 14 hores i 51 minuts, a les 05:00 UTC
Pronòstic vàlid del 21 a les 06 UTC al 22 a les 12 UTC
Vent 5 kt del Nord
Visibilitat 10 km o més
sense núvols per sota de 1500 mi sense presència de cumulonimbus.
Temporalment
l' 21 a les 06 UTC al 21 a les 07 UTC
Boira superficial
Probabilitat 40% :
Temporalment
l' 21 a les 16 UTC al 21 a les 19 UTC
Vent 10 kt del Oest/Nord-Oest

TAF: LFBD 210500Z 2106/2212 36005KT CAVOK TX33/2115Z TN18/2106Z TEMPO 2106/2107 MIFG PROB40 TEMPO 2116/2119 30010KT

Observacions i pronòstics meteorològics de més de 4000 aeroports (METAR i TAF).

Les estacions disponibles són els punts grocs i vermells al mapa.

Posi el ratolí al punt desitjat per veure el nom de l'estació.

Feu clic per veure les observacions i els pronòstics meteorològics.

Per canviar el mapa: feu clic els botons verds amb una creu de color negre per apropar; al botó verd amb un guió per allunyar la imatge; o en les fletxes verdes per a mapes adjacents.


METAR-TAF: